N142CM MMMX-MMTG
Flight info
| Callsign | N142CM |
|---|---|
| Flight time | N/A |
| Altitude | 9500 |
| Route | VFR |
| Aircraft | B58/L-V/N |
Departure
| Time | 2026-05-04 02:39 |
|---|---|
| Airport | Mexico City Benito Juárez International Airport (MMMX) |
Arrival
| Time | N/A |
|---|---|
| Airport | Angel Albino Corzo International Airport (MMTG) |
| Time | Latitude | Longitude | Altitude | Speed | Heading |
|---|---|---|---|---|---|
| 2026-05-04 02:14 | 19.44541 | -99.06534 | 7319 ft | 0 kts | 13° |
| 2026-05-04 02:30 | 19.44543 | -99.06527 | 7319 ft | 0 kts | 156° |
| 2026-05-04 02:31 | 19.44492 | -99.06546 | 7319 ft | 4 kts | 206° |
| 2026-05-04 02:31 | 19.44437 | -99.06563 | 7319 ft | 3 kts | 193° |
| 2026-05-04 02:31 | 19.44428 | -99.06560 | 7319 ft | 4 kts | 141° |
| 2026-05-04 02:31 | 19.44370 | -99.06535 | 7319 ft | 14 kts | 226° |
| 2026-05-04 02:32 | 19.44318 | -99.06645 | 7319 ft | 17 kts | 238° |
| 2026-05-04 02:32 | 19.44263 | -99.06736 | 7319 ft | 17 kts | 224° |
| 2026-05-04 02:32 | 19.44179 | -99.06735 | 7319 ft | 12 kts | 220° |
| 2026-05-04 02:32 | 19.44079 | -99.06929 | 7319 ft | 35 kts | 233° |
| 2026-05-04 02:33 | 19.43985 | -99.07095 | 7319 ft | 20 kts | 239° |
| 2026-05-04 02:33 | 19.43915 | -99.07216 | 7319 ft | 14 kts | 238° |
| 2026-05-04 02:33 | 19.43858 | -99.07317 | 7319 ft | 21 kts | 239° |
| 2026-05-04 02:33 | 19.43802 | -99.07417 | 7319 ft | 18 kts | 239° |
| 2026-05-04 02:34 | 19.43738 | -99.07532 | 7319 ft | 22 kts | 237° |
| 2026-05-04 02:34 | 19.43657 | -99.07675 | 7319 ft | 28 kts | 238° |
| 2026-05-04 02:34 | 19.43581 | -99.07812 | 7319 ft | 16 kts | 238° |
| 2026-05-04 02:34 | 19.43501 | -99.07956 | 7319 ft | 24 kts | 239° |
| 2026-05-04 02:35 | 19.43431 | -99.08079 | 7319 ft | 17 kts | 238° |
| 2026-05-04 02:35 | 19.43382 | -99.08165 | 7319 ft | 5 kts | 238° |
| 2026-05-04 02:35 | 19.43341 | -99.08182 | 7319 ft | 0 kts | 163° |
| 2026-05-04 02:36 | 19.43338 | -99.08181 | 7319 ft | 2 kts | 163° |
| 2026-05-04 02:37 | 19.43337 | -99.08181 | 7319 ft | 0 kts | 163° |
| 2026-05-04 02:37 | 19.43315 | -99.08174 | 7319 ft | 3 kts | 162° |
| 2026-05-04 02:37 | 19.43274 | -99.08123 | 7319 ft | 18 kts | 76° |
| 2026-05-04 02:38 | 19.43410 | -99.07869 | 7319 ft | 61 kts | 59° |
| 2026-05-04 02:38 | 19.43686 | -99.07379 | 7320 ft | 92 kts | 59° |
| 2026-05-04 02:38 | 19.43926 | -99.06957 | 7329 ft | 105 kts | 56° |
| 2026-05-04 02:38 | 19.44310 | -99.06266 | 7430 ft | 112 kts | 61° |
| 2026-05-04 02:39 | 19.44606 | -99.05488 | 7594 ft | 110 kts | 78° |
| 2026-05-04 02:39 | 19.44560 | -99.04712 | 7775 ft | 107 kts | 111° |
| 2026-05-04 02:39 | 19.44143 | -99.04052 | 7889 ft | 111 kts | 127° |
| 2026-05-04 02:39 | 19.43644 | -99.03401 | 7966 ft | 118 kts | 125° |
| 2026-05-04 02:40 | 19.43194 | -99.02582 | 7926 ft | 133 kts | 117° |
| 2026-05-04 02:40 | 19.42788 | -99.01712 | 8096 ft | 129 kts | 115° |
| 2026-05-04 02:40 | 19.42408 | -99.00873 | 8258 ft | 126 kts | 115° |
| 2026-05-04 02:40 | 19.42032 | -99.00038 | 8423 ft | 122 kts | 115° |
| 2026-05-04 02:41 | 19.41671 | -98.99230 | 8589 ft | 120 kts | 115° |
| 2026-05-04 02:41 | 19.41320 | -98.98444 | 8752 ft | 118 kts | 114° |
| 2026-05-04 02:41 | 19.40971 | -98.97660 | 8917 ft | 115 kts | 114° |
| 2026-05-04 02:41 | 19.40638 | -98.96911 | 9076 ft | 112 kts | 114° |
| 2026-05-04 02:42 | 19.40309 | -98.96172 | 9235 ft | 108 kts | 114° |
| 2026-05-04 02:42 | 19.39996 | -98.95465 | 9389 ft | 104 kts | 113° |
| 2026-05-04 02:42 | 19.39697 | -98.94788 | 9538 ft | 99 kts | 112° |
| 2026-05-04 02:42 | 19.39417 | -98.94147 | 9679 ft | 94 kts | 109° |
| 2026-05-04 02:43 | 19.39153 | -98.93536 | 9806 ft | 87 kts | 106° |
| 2026-05-04 02:43 | 19.38900 | -98.92942 | 9841 ft | 90 kts | 108° |
| 2026-05-04 02:43 | 19.38637 | -98.92347 | 9911 ft | 89 kts | 107° |
| 2026-05-04 02:43 | 19.38374 | -98.91757 | 9970 ft | 88 kts | 108° |
| 2026-05-04 02:44 | 19.38109 | -98.91163 | 10009 ft | 90 kts | 108° |
| 2026-05-04 02:44 | 19.37842 | -98.90567 | 10069 ft | 89 kts | 108° |
| 2026-05-04 02:44 | 19.37578 | -98.89988 | 10152 ft | 85 kts | 105° |
| 2026-05-04 02:44 | 19.37319 | -98.89407 | 10176 ft | 88 kts | 107° |
| 2026-05-04 02:45 | 19.37063 | -98.88840 | 10232 ft | 87 kts | 105° |
| 2026-05-04 02:45 | 19.36803 | -98.88262 | 10291 ft | 85 kts | 107° |
| 2026-05-04 02:45 | 19.36549 | -98.87695 | 10344 ft | 86 kts | 105° |
| 2026-05-04 02:45 | 19.36294 | -98.87127 | 10422 ft | 85 kts | 105° |
| 2026-05-04 02:46 | 19.36043 | -98.86558 | 10503 ft | 84 kts | 109° |
| 2026-05-04 02:46 | 19.35778 | -98.85969 | 10469 ft | 98 kts | 112° |
| 2026-05-04 02:46 | 19.35481 | -98.85335 | 10543 ft | 99 kts | 115° |
| 2026-05-04 02:46 | 19.35166 | -98.84639 | 10536 ft | 109 kts | 116° |
| 2026-05-04 02:47 | 19.34835 | -98.83906 | 10606 ft | 111 kts | 115° |
| 2026-05-04 02:47 | 19.34526 | -98.83178 | 10685 ft | 108 kts | 111° |
| 2026-05-04 02:47 | 19.34211 | -98.82434 | 10722 ft | 109 kts | 113° |
| 2026-05-04 02:47 | 19.33892 | -98.81704 | 10763 ft | 110 kts | 114° |
| 2026-05-04 02:48 | 19.33570 | -98.80978 | 10821 ft | 108 kts | 114° |
| 2026-05-04 02:48 | 19.33246 | -98.80253 | 10855 ft | 110 kts | 114° |
| 2026-05-04 02:48 | 19.32917 | -98.79517 | 10897 ft | 110 kts | 114° |
| 2026-05-04 02:48 | 19.32592 | -98.78795 | 10944 ft | 109 kts | 114° |
| 2026-05-04 02:49 | 19.32263 | -98.78062 | 10977 ft | 110 kts | 114° |
| 2026-05-04 02:49 | 19.31938 | -98.77338 | 11016 ft | 110 kts | 114° |
| 2026-05-04 02:49 | 19.31611 | -98.76611 | 11056 ft | 109 kts | 114° |
| 2026-05-04 02:49 | 19.31281 | -98.75878 | 11087 ft | 110 kts | 115° |
| 2026-05-04 02:50 | 19.30950 | -98.75140 | 11123 ft | 110 kts | 114° |
| 2026-05-04 02:50 | 19.30622 | -98.74410 | 11158 ft | 110 kts | 114° |
| 2026-05-04 02:50 | 19.30295 | -98.73683 | 11188 ft | 110 kts | 115° |
| 2026-05-04 02:50 | 19.29967 | -98.72954 | 11220 ft | 110 kts | 115° |
| 2026-05-04 02:51 | 19.29635 | -98.72216 | 11250 ft | 110 kts | 115° |
| 2026-05-04 02:51 | 19.29306 | -98.71485 | 11278 ft | 110 kts | 115° |
| 2026-05-04 02:51 | 19.29210 | -98.70683 | 11300 ft | 113 kts | 76° |
| 2026-05-04 02:51 | 19.29352 | -98.69872 | 11340 ft | 111 kts | 73° |
| 2026-05-04 02:52 | 19.29439 | -98.69052 | 11366 ft | 113 kts | 97° |
| 2026-05-04 02:52 | 19.29420 | -98.68217 | 11400 ft | 112 kts | 70° |
| 2026-05-04 02:52 | 19.29576 | -98.67400 | 11419 ft | 112 kts | 68° |
| 2026-05-04 02:52 | 19.29659 | -98.66588 | 11449 ft | 112 kts | 90° |
| 2026-05-04 02:53 | 19.29500 | -98.65778 | 11460 ft | 112 kts | 115° |
| 2026-05-04 02:53 | 19.29106 | -98.65094 | 11497 ft | 108 kts | 127° |
| 2026-05-04 02:53 | 19.28724 | -98.64396 | 11511 ft | 112 kts | 114° |
| 2026-05-04 02:53 | 19.28475 | -98.63626 | 11544 ft | 112 kts | 101° |
| 2026-05-04 02:54 | 19.28353 | -98.62791 | 11569 ft | 113 kts | 102° |
| 2026-05-04 02:54 | 19.28060 | -98.62042 | 11576 ft | 111 kts | 127° |
| 2026-05-04 02:54 | 19.27655 | -98.61358 | 11621 ft | 109 kts | 130° |
| 2026-05-04 02:54 | 19.27224 | -98.60698 | 11646 ft | 109 kts | 119° |
| 2026-05-04 02:55 | 19.26632 | -98.59175 | 11654 ft | 113 kts | 115° |
| 2026-05-04 02:55 | 19.26345 | -98.58422 | 11684 ft | 112 kts | 109° |
| 2026-05-04 02:55 | 19.25890 | -98.57730 | 11627 ft | 115 kts | 138° |
| 2026-05-04 02:56 | 19.25333 | -98.57114 | 11626 ft | 119 kts | 140° |
| 2026-05-04 02:56 | 19.24735 | -98.56470 | 11620 ft | 124 kts | 141° |
| 2026-05-04 02:56 | 19.24117 | -98.55814 | 11615 ft | 128 kts | 142° |
| 2026-05-04 02:56 | 19.23479 | -98.55140 | 11612 ft | 131 kts | 142° |
| 2026-05-04 02:57 | 19.22824 | -98.54450 | 11609 ft | 134 kts | 142° |
| 2026-05-04 02:57 | 19.22157 | -98.53749 | 11608 ft | 137 kts | 142° |
| 2026-05-04 02:57 | 19.21489 | -98.53023 | 11607 ft | 140 kts | 138° |
| 2026-05-04 02:57 | 19.20872 | -98.52196 | 11606 ft | 144 kts | 130° |
| 2026-05-04 02:58 | 19.20325 | -98.51296 | 11605 ft | 147 kts | 125° |
| 2026-05-04 02:58 | 19.19820 | -98.50352 | 11604 ft | 149 kts | 122° |
| 2026-05-04 02:58 | 19.19337 | -98.49379 | 11604 ft | 151 kts | 121° |
| 2026-05-04 02:58 | 19.18859 | -98.48377 | 11603 ft | 152 kts | 120° |
| 2026-05-04 02:59 | 19.18390 | -98.47371 | 11603 ft | 153 kts | 120° |
| 2026-05-04 02:59 | 19.17923 | -98.46355 | 11603 ft | 155 kts | 120° |
| 2026-05-04 02:59 | 19.17456 | -98.45332 | 11602 ft | 156 kts | 119° |
| 2026-05-04 02:59 | 19.16982 | -98.44289 | 11602 ft | 157 kts | 119° |
| 2026-05-04 03:00 | 19.16511 | -98.43251 | 11602 ft | 157 kts | 119° |
| 2026-05-04 03:00 | 19.16037 | -98.42205 | 11601 ft | 158 kts | 119° |
| 2026-05-04 03:00 | 19.15566 | -98.41162 | 11599 ft | 157 kts | 119° |
| 2026-05-04 03:00 | 19.15097 | -98.40121 | 11596 ft | 155 kts | 119° |
| 2026-05-04 03:01 | 19.14635 | -98.39096 | 11596 ft | 154 kts | 120° |
| 2026-05-04 03:01 | 19.14162 | -98.38064 | 11606 ft | 158 kts | 119° |
| 2026-05-04 03:01 | 19.13682 | -98.37004 | 11609 ft | 163 kts | 119° |
| 2026-05-04 03:01 | 19.13182 | -98.35899 | 11608 ft | 167 kts | 119° |
| 2026-05-04 03:02 | 19.12681 | -98.34791 | 11607 ft | 171 kts | 119° |
| 2026-05-04 03:02 | 19.12156 | -98.33631 | 11608 ft | 176 kts | 119° |
| 2026-05-04 03:02 | 19.11619 | -98.32447 | 11607 ft | 180 kts | 119° |
| 2026-05-04 03:02 | 19.11074 | -98.31245 | 11605 ft | 184 kts | 118° |
| 2026-05-04 03:03 | 19.10518 | -98.30019 | 11604 ft | 186 kts | 118° |
| 2026-05-04 03:03 | 19.09959 | -98.28784 | 11603 ft | 188 kts | 118° |
| 2026-05-04 03:03 | 19.09387 | -98.27521 | 11602 ft | 190 kts | 118° |
| 2026-05-04 03:03 | 19.08820 | -98.26271 | 11602 ft | 191 kts | 118° |
| 2026-05-04 03:04 | 19.08238 | -98.24989 | 11601 ft | 192 kts | 118° |
| 2026-05-04 03:04 | 19.07659 | -98.23711 | 11601 ft | 193 kts | 118° |
| 2026-05-04 03:04 | 19.07084 | -98.22443 | 11601 ft | 193 kts | 118° |
| 2026-05-04 03:04 | 19.06499 | -98.21152 | 11600 ft | 194 kts | 118° |
| 2026-05-04 03:05 | 19.05914 | -98.19863 | 11600 ft | 194 kts | 118° |
| 2026-05-04 03:05 | 19.05333 | -98.18582 | 11600 ft | 194 kts | 118° |
| 2026-05-04 03:05 | 19.04751 | -98.17299 | 11600 ft | 194 kts | 118° |
| 2026-05-04 03:05 | 19.04165 | -98.16009 | 11600 ft | 194 kts | 118° |
| 2026-05-04 03:06 | 19.03583 | -98.14725 | 11600 ft | 194 kts | 118° |
| 2026-05-04 03:06 | 19.02992 | -98.13425 | 11600 ft | 194 kts | 118° |
| 2026-05-04 03:06 | 19.02408 | -98.12138 | 11600 ft | 194 kts | 118° |
| 2026-05-04 03:06 | 19.01823 | -98.10849 | 11600 ft | 194 kts | 118° |
| 2026-05-04 03:07 | 19.01241 | -98.09568 | 11600 ft | 194 kts | 118° |
| 2026-05-04 03:07 | 19.00651 | -98.08270 | 11600 ft | 194 kts | 118° |
| 2026-05-04 03:07 | 19.00065 | -98.06980 | 11600 ft | 194 kts | 118° |
| 2026-05-04 03:07 | 18.99485 | -98.05705 | 11600 ft | 194 kts | 118° |
| 2026-05-04 03:08 | 18.98898 | -98.04413 | 11600 ft | 194 kts | 118° |
| 2026-05-04 03:08 | 18.98313 | -98.03127 | 11600 ft | 195 kts | 118° |
| 2026-05-04 03:08 | 18.97725 | -98.01834 | 11600 ft | 195 kts | 118° |
| 2026-05-04 03:08 | 18.97135 | -98.00538 | 11600 ft | 195 kts | 118° |
| 2026-05-04 03:09 | 18.96546 | -97.99243 | 11600 ft | 196 kts | 118° |
| 2026-05-04 03:09 | 18.95953 | -97.97940 | 11600 ft | 196 kts | 118° |
| 2026-05-04 03:09 | 18.95366 | -97.96651 | 11600 ft | 196 kts | 118° |
| 2026-05-04 03:09 | 18.94772 | -97.95346 | 11600 ft | 196 kts | 118° |
| 2026-05-04 03:10 | 18.94186 | -97.94059 | 11600 ft | 196 kts | 118° |
| 2026-05-04 03:10 | 18.93591 | -97.92754 | 11600 ft | 196 kts | 118° |
| 2026-05-04 03:10 | 18.93002 | -97.91461 | 11600 ft | 196 kts | 118° |
| 2026-05-04 03:10 | 18.92409 | -97.90159 | 11600 ft | 196 kts | 118° |
| 2026-05-04 03:11 | 18.91817 | -97.88861 | 11600 ft | 196 kts | 118° |
| 2026-05-04 03:11 | 18.91223 | -97.87558 | 11600 ft | 196 kts | 118° |
| 2026-05-04 03:11 | 18.90826 | -97.86689 | 11600 ft | 196 kts | 118° |
| 2026-05-04 03:11 | 18.90038 | -97.84960 | 11600 ft | 196 kts | 118° |
| 2026-05-04 03:12 | 18.89452 | -97.83676 | 11600 ft | 196 kts | 118° |
| 2026-05-04 03:12 | 18.88860 | -97.82380 | 11600 ft | 196 kts | 118° |
| 2026-05-04 03:12 | 18.88268 | -97.81082 | 11600 ft | 196 kts | 118° |
| 2026-05-04 03:12 | 18.87871 | -97.80213 | 11600 ft | 196 kts | 118° |
| 2026-05-04 03:13 | 18.87280 | -97.78918 | 11600 ft | 196 kts | 118° |
| 2026-05-04 03:13 | 18.86682 | -97.77609 | 11600 ft | 196 kts | 118° |
| 2026-05-04 03:13 | 18.86096 | -97.76326 | 11600 ft | 196 kts | 118° |
| 2026-05-04 03:13 | 18.85504 | -97.75032 | 11600 ft | 196 kts | 118° |
| 2026-05-04 03:14 | 18.84909 | -97.73728 | 11600 ft | 196 kts | 118° |
| 2026-05-04 03:14 | 18.84314 | -97.72429 | 11600 ft | 196 kts | 118° |
| 2026-05-04 03:14 | 18.83720 | -97.71129 | 11600 ft | 196 kts | 118° |
| 2026-05-04 03:14 | 18.83129 | -97.69836 | 11600 ft | 196 kts | 118° |
| 2026-05-04 03:15 | 18.82534 | -97.68536 | 11600 ft | 196 kts | 118° |
| 2026-05-04 03:15 | 18.81940 | -97.67238 | 11600 ft | 196 kts | 118° |
| 2026-05-04 03:15 | 18.81348 | -97.65945 | 11600 ft | 196 kts | 118° |
| 2026-05-04 03:15 | 18.80756 | -97.64652 | 11600 ft | 196 kts | 118° |
| 2026-05-04 03:16 | 18.80161 | -97.63351 | 11600 ft | 196 kts | 118° |
| 2026-05-04 03:16 | 18.79569 | -97.62058 | 11600 ft | 196 kts | 118° |
| 2026-05-04 03:16 | 18.78972 | -97.60756 | 11600 ft | 196 kts | 118° |
| 2026-05-04 03:16 | 18.78377 | -97.59457 | 11600 ft | 196 kts | 119° |
| 2026-05-04 03:17 | 18.77783 | -97.58161 | 11600 ft | 196 kts | 119° |
| 2026-05-04 03:17 | 18.77195 | -97.56878 | 11600 ft | 196 kts | 119° |
| 2026-05-04 03:17 | 18.76595 | -97.55571 | 11600 ft | 196 kts | 119° |
| 2026-05-04 03:17 | 18.76001 | -97.54275 | 11600 ft | 196 kts | 119° |
| 2026-05-04 03:18 | 18.75407 | -97.52980 | 11600 ft | 196 kts | 119° |
| 2026-05-04 03:18 | 18.74811 | -97.51679 | 11600 ft | 196 kts | 119° |
| 2026-05-04 03:18 | 18.74217 | -97.50387 | 11600 ft | 196 kts | 119° |
| 2026-05-04 03:18 | 18.73619 | -97.49084 | 11600 ft | 196 kts | 119° |
| 2026-05-04 03:19 | 18.73028 | -97.47795 | 11600 ft | 196 kts | 119° |
| 2026-05-04 03:19 | 18.72431 | -97.46496 | 11600 ft | 196 kts | 119° |
| 2026-05-04 03:19 | 18.71841 | -97.45211 | 11600 ft | 196 kts | 119° |
| 2026-05-04 03:19 | 18.71242 | -97.43907 | 11600 ft | 196 kts | 119° |
| 2026-05-04 03:20 | 18.70646 | -97.42610 | 11600 ft | 196 kts | 119° |
| 2026-05-04 03:20 | 18.70056 | -97.41327 | 11600 ft | 196 kts | 119° |
| 2026-05-04 03:20 | 18.69459 | -97.40027 | 11600 ft | 196 kts | 119° |
| 2026-05-04 03:20 | 18.68863 | -97.38731 | 11600 ft | 196 kts | 119° |
| 2026-05-04 03:21 | 18.68272 | -97.37447 | 11600 ft | 196 kts | 119° |
| 2026-05-04 03:21 | 18.67678 | -97.36155 | 11600 ft | 196 kts | 119° |
| 2026-05-04 03:21 | 18.67083 | -97.34861 | 11600 ft | 196 kts | 119° |
| 2026-05-04 03:21 | 18.66479 | -97.33550 | 11600 ft | 196 kts | 119° |
| 2026-05-04 03:22 | 18.65889 | -97.32267 | 11600 ft | 196 kts | 119° |
| 2026-05-04 03:22 | 18.65290 | -97.30968 | 11600 ft | 196 kts | 119° |
| 2026-05-04 03:22 | 18.64694 | -97.29673 | 11600 ft | 196 kts | 119° |
| 2026-05-04 03:22 | 18.64098 | -97.28378 | 11600 ft | 196 kts | 119° |
| 2026-05-04 03:23 | 18.63507 | -97.27095 | 11600 ft | 196 kts | 119° |
| 2026-05-04 03:23 | 18.62910 | -97.25801 | 11600 ft | 196 kts | 119° |
| 2026-05-04 03:23 | 18.62307 | -97.24492 | 11600 ft | 196 kts | 119° |
| 2026-05-04 03:23 | 18.61711 | -97.23199 | 11600 ft | 196 kts | 119° |
| 2026-05-04 03:24 | 18.61119 | -97.21915 | 11600 ft | 196 kts | 119° |
| 2026-05-04 03:24 | 18.60519 | -97.20614 | 11600 ft | 196 kts | 119° |
| 2026-05-04 03:24 | 18.59925 | -97.19326 | 11600 ft | 196 kts | 119° |
| 2026-05-04 03:24 | 18.59327 | -97.18031 | 11600 ft | 196 kts | 119° |
| 2026-05-04 03:25 | 18.58734 | -97.16745 | 11600 ft | 196 kts | 119° |
| 2026-05-04 03:25 | 18.58138 | -97.15455 | 11600 ft | 196 kts | 119° |
| 2026-05-04 03:25 | 18.57538 | -97.14155 | 11600 ft | 196 kts | 119° |
| 2026-05-04 03:25 | 18.56941 | -97.12862 | 11600 ft | 196 kts | 119° |
| 2026-05-04 03:26 | 18.56343 | -97.11568 | 11600 ft | 196 kts | 119° |
| 2026-05-04 03:26 | 18.55745 | -97.10274 | 11600 ft | 196 kts | 119° |
| 2026-05-04 03:26 | 18.55144 | -97.08973 | 11600 ft | 196 kts | 119° |
| 2026-05-04 03:26 | 18.54549 | -97.07685 | 11600 ft | 196 kts | 119° |
| 2026-05-04 03:27 | 18.53954 | -97.06399 | 11600 ft | 196 kts | 119° |
| 2026-05-04 03:27 | 18.53352 | -97.05097 | 11600 ft | 196 kts | 119° |
| 2026-05-04 03:27 | 18.52759 | -97.03815 | 11600 ft | 196 kts | 119° |
| 2026-05-04 03:27 | 18.52163 | -97.02526 | 11600 ft | 196 kts | 119° |
| 2026-05-04 03:28 | 18.51558 | -97.01219 | 11600 ft | 196 kts | 119° |
| 2026-05-04 03:28 | 18.50962 | -96.99931 | 11600 ft | 196 kts | 119° |
| 2026-05-04 03:28 | 18.50366 | -96.98642 | 11600 ft | 196 kts | 119° |
| 2026-05-04 03:28 | 18.49772 | -96.97360 | 11600 ft | 196 kts | 119° |
| 2026-05-04 03:29 | 18.49169 | -96.96057 | 11600 ft | 196 kts | 119° |
| 2026-05-04 03:29 | 18.48572 | -96.94770 | 11600 ft | 196 kts | 119° |
| 2026-05-04 03:29 | 18.47971 | -96.93472 | 11600 ft | 196 kts | 119° |
| 2026-05-04 03:29 | 18.47373 | -96.92182 | 11600 ft | 196 kts | 119° |
| 2026-05-04 03:30 | 18.46780 | -96.90903 | 11600 ft | 196 kts | 119° |
| 2026-05-04 03:30 | 18.46179 | -96.89607 | 11600 ft | 196 kts | 119° |
| 2026-05-04 03:30 | 18.45581 | -96.88317 | 11600 ft | 196 kts | 119° |
| 2026-05-04 03:30 | 18.44976 | -96.87013 | 11600 ft | 196 kts | 119° |
| 2026-05-04 03:31 | 18.44380 | -96.85727 | 11600 ft | 196 kts | 119° |
| 2026-05-04 03:31 | 18.43778 | -96.84430 | 11600 ft | 196 kts | 119° |
| 2026-05-04 03:31 | 18.43178 | -96.83138 | 11600 ft | 196 kts | 119° |
| 2026-05-04 03:31 | 18.42580 | -96.81850 | 11600 ft | 196 kts | 119° |
| 2026-05-04 03:32 | 18.41984 | -96.80565 | 11600 ft | 196 kts | 119° |
| 2026-05-04 03:32 | 18.41381 | -96.79268 | 11600 ft | 196 kts | 119° |
| 2026-05-04 03:32 | 18.40784 | -96.77982 | 11600 ft | 196 kts | 119° |
| 2026-05-04 03:32 | 18.40183 | -96.76688 | 11600 ft | 196 kts | 119° |
| 2026-05-04 03:33 | 18.39584 | -96.75399 | 11600 ft | 196 kts | 119° |
| 2026-05-04 03:33 | 18.38982 | -96.74104 | 11600 ft | 196 kts | 119° |
| 2026-05-04 03:33 | 18.38382 | -96.72815 | 11600 ft | 196 kts | 119° |
| 2026-05-04 03:33 | 18.37780 | -96.71519 | 11600 ft | 196 kts | 119° |
| 2026-05-04 03:34 | 18.37182 | -96.70234 | 11600 ft | 196 kts | 119° |
| 2026-05-04 03:34 | 18.36584 | -96.68949 | 11600 ft | 196 kts | 119° |
| 2026-05-04 03:34 | 18.35979 | -96.67648 | 11600 ft | 196 kts | 119° |
| 2026-05-04 03:34 | 18.35375 | -96.66351 | 11600 ft | 196 kts | 119° |
| 2026-05-04 03:35 | 18.34775 | -96.65062 | 11600 ft | 196 kts | 119° |
| 2026-05-04 03:35 | 18.34179 | -96.63782 | 11600 ft | 196 kts | 119° |
| 2026-05-04 03:35 | 18.33581 | -96.62498 | 11600 ft | 196 kts | 119° |
| 2026-05-04 03:35 | 18.32975 | -96.61195 | 11600 ft | 196 kts | 119° |
| 2026-05-04 03:36 | 18.32374 | -96.59905 | 11600 ft | 196 kts | 119° |
| 2026-05-04 03:36 | 18.31774 | -96.58620 | 11600 ft | 196 kts | 119° |
| 2026-05-04 03:36 | 18.31170 | -96.57324 | 11600 ft | 196 kts | 119° |
| 2026-05-04 03:36 | 18.30570 | -96.56036 | 11600 ft | 196 kts | 119° |
| 2026-05-04 03:37 | 18.29975 | -96.54760 | 11600 ft | 196 kts | 119° |
| 2026-05-04 03:37 | 18.29375 | -96.53473 | 11600 ft | 196 kts | 119° |
| 2026-05-04 03:37 | 18.28770 | -96.52176 | 11600 ft | 196 kts | 119° |
| 2026-05-04 03:37 | 18.28164 | -96.50879 | 11600 ft | 196 kts | 119° |
| 2026-05-04 03:38 | 18.27566 | -96.49596 | 11601 ft | 196 kts | 120° |
| 2026-05-04 03:38 | 18.26971 | -96.48321 | 11600 ft | 196 kts | 120° |
| 2026-05-04 03:38 | 18.26364 | -96.47021 | 11600 ft | 196 kts | 120° |
| 2026-05-04 03:38 | 18.25764 | -96.45737 | 11600 ft | 195 kts | 120° |
| 2026-05-04 03:39 | 18.25167 | -96.44460 | 11600 ft | 195 kts | 120° |
| 2026-05-04 03:39 | 18.24568 | -96.43176 | 11600 ft | 195 kts | 120° |
| 2026-05-04 03:39 | 18.23974 | -96.41905 | 11600 ft | 195 kts | 120° |
| 2026-05-04 03:39 | 18.23376 | -96.40626 | 11600 ft | 195 kts | 120° |
| 2026-05-04 03:40 | 18.22767 | -96.39324 | 11600 ft | 195 kts | 120° |
| 2026-05-04 03:40 | 18.22170 | -96.38046 | 11600 ft | 195 kts | 120° |
| 2026-05-04 03:40 | 18.21569 | -96.36760 | 11600 ft | 195 kts | 120° |
| 2026-05-04 03:40 | 18.20979 | -96.35500 | 11600 ft | 194 kts | 120° |
| 2026-05-04 03:41 | 18.20378 | -96.34214 | 11601 ft | 194 kts | 121° |
| 2026-05-04 03:41 | 18.19784 | -96.32943 | 11601 ft | 193 kts | 121° |
| 2026-05-04 03:41 | 18.19203 | -96.31699 | 11601 ft | 190 kts | 121° |
| 2026-05-04 03:41 | 18.18623 | -96.30461 | 11599 ft | 189 kts | 121° |
| 2026-05-04 03:42 | 18.18041 | -96.29218 | 11600 ft | 187 kts | 122° |
| 2026-05-04 03:42 | 18.17472 | -96.28004 | 11600 ft | 186 kts | 122° |
| 2026-05-04 03:42 | 18.16900 | -96.26784 | 11600 ft | 185 kts | 122° |
| 2026-05-04 03:42 | 18.16335 | -96.25579 | 11600 ft | 184 kts | 122° |
| 2026-05-04 03:43 | 18.15764 | -96.24361 | 11600 ft | 184 kts | 122° |
| 2026-05-04 03:43 | 18.15202 | -96.23164 | 11600 ft | 183 kts | 122° |
| 2026-05-04 03:43 | 18.14643 | -96.21971 | 11600 ft | 183 kts | 122° |
| 2026-05-04 03:43 | 18.14077 | -96.20764 | 11599 ft | 182 kts | 122° |
| 2026-05-04 03:44 | 18.13516 | -96.19569 | 11599 ft | 183 kts | 122° |
| 2026-05-04 03:44 | 18.12954 | -96.18372 | 11600 ft | 183 kts | 122° |
| 2026-05-04 03:44 | 18.12396 | -96.17183 | 11600 ft | 183 kts | 122° |
| 2026-05-04 03:44 | 18.11828 | -96.15974 | 11600 ft | 183 kts | 122° |
| 2026-05-04 03:45 | 18.11260 | -96.14763 | 11600 ft | 184 kts | 122° |
| 2026-05-04 03:45 | 18.10696 | -96.13561 | 11600 ft | 184 kts | 122° |
| 2026-05-04 03:45 | 18.10130 | -96.12357 | 11600 ft | 184 kts | 122° |
| 2026-05-04 03:45 | 18.09562 | -96.11147 | 11600 ft | 184 kts | 122° |
| 2026-05-04 03:46 | 18.08997 | -96.09946 | 11599 ft | 185 kts | 122° |
| 2026-05-04 03:46 | 18.08419 | -96.08719 | 11590 ft | 188 kts | 120° |
| 2026-05-04 03:46 | 18.07838 | -96.07487 | 11600 ft | 190 kts | 119° |
| 2026-05-04 03:46 | 18.07250 | -96.06234 | 11602 ft | 192 kts | 119° |
| 2026-05-04 03:47 | 18.06661 | -96.04979 | 11602 ft | 193 kts | 119° |
| 2026-05-04 03:47 | 18.06064 | -96.03707 | 11601 ft | 194 kts | 119° |
| 2026-05-04 03:47 | 18.05467 | -96.02436 | 11601 ft | 195 kts | 119° |
| 2026-05-04 03:47 | 18.04862 | -96.01151 | 11601 ft | 196 kts | 119° |
| 2026-05-04 03:48 | 18.04259 | -95.99868 | 11600 ft | 196 kts | 119° |
| 2026-05-04 03:48 | 18.03654 | -95.98581 | 11600 ft | 196 kts | 119° |
| 2026-05-04 03:48 | 18.03053 | -95.97305 | 11600 ft | 196 kts | 119° |
| 2026-05-04 03:48 | 18.02443 | -95.96009 | 11600 ft | 196 kts | 119° |
| 2026-05-04 03:49 | 18.01841 | -95.94731 | 11600 ft | 196 kts | 119° |
| 2026-05-04 03:49 | 18.01232 | -95.93438 | 11600 ft | 196 kts | 120° |
| 2026-05-04 03:49 | 18.00627 | -95.92154 | 11600 ft | 196 kts | 120° |
| 2026-05-04 03:49 | 18.00224 | -95.91298 | 11600 ft | 196 kts | 120° |
| 2026-05-04 03:50 | 17.99619 | -95.90013 | 11600 ft | 196 kts | 120° |
| 2026-05-04 03:50 | 17.99017 | -95.88737 | 11600 ft | 196 kts | 120° |
| 2026-05-04 03:50 | 17.98409 | -95.87446 | 11600 ft | 196 kts | 120° |
| 2026-05-04 03:50 | 17.97802 | -95.86161 | 11600 ft | 196 kts | 120° |
| 2026-05-04 03:51 | 17.97204 | -95.84893 | 11599 ft | 196 kts | 119° |
| 2026-05-04 03:51 | 17.96598 | -95.83610 | 11600 ft | 196 kts | 119° |
| 2026-05-04 03:51 | 17.95993 | -95.82326 | 11600 ft | 196 kts | 119° |
| 2026-05-04 03:51 | 17.95389 | -95.81046 | 11600 ft | 196 kts | 119° |
| 2026-05-04 03:52 | 17.94778 | -95.79753 | 11600 ft | 196 kts | 119° |
| 2026-05-04 03:52 | 17.94174 | -95.78473 | 11600 ft | 196 kts | 119° |
| 2026-05-04 03:52 | 17.93564 | -95.77180 | 11600 ft | 196 kts | 119° |
| 2026-05-04 03:52 | 17.92959 | -95.75900 | 11600 ft | 196 kts | 119° |
| 2026-05-04 03:53 | 17.92357 | -95.74626 | 11600 ft | 196 kts | 119° |
| 2026-05-04 03:53 | 17.91746 | -95.73333 | 11600 ft | 196 kts | 119° |
| 2026-05-04 03:53 | 17.91144 | -95.72060 | 11600 ft | 196 kts | 119° |
| 2026-05-04 03:53 | 17.90531 | -95.70763 | 11600 ft | 196 kts | 119° |
| 2026-05-04 03:54 | 17.89929 | -95.69491 | 11600 ft | 196 kts | 119° |
| 2026-05-04 03:54 | 17.89325 | -95.68213 | 11600 ft | 196 kts | 119° |
| 2026-05-04 03:54 | 17.88713 | -95.66919 | 11600 ft | 196 kts | 119° |
| 2026-05-04 03:54 | 17.88105 | -95.65633 | 11600 ft | 196 kts | 119° |
| 2026-05-04 03:55 | 17.87498 | -95.64352 | 11600 ft | 196 kts | 119° |
| 2026-05-04 03:55 | 17.86886 | -95.63059 | 11600 ft | 196 kts | 119° |
| 2026-05-04 03:55 | 17.86281 | -95.61780 | 11601 ft | 196 kts | 120° |
| 2026-05-04 03:55 | 17.85678 | -95.60507 | 11600 ft | 196 kts | 120° |
| 2026-05-04 03:56 | 17.85062 | -95.59207 | 11600 ft | 196 kts | 120° |
| 2026-05-04 03:56 | 17.84458 | -95.57932 | 11600 ft | 196 kts | 120° |
| 2026-05-04 03:56 | 17.83853 | -95.56656 | 11600 ft | 196 kts | 120° |
| 2026-05-04 03:56 | 17.83242 | -95.55366 | 11600 ft | 196 kts | 120° |
| 2026-05-04 03:57 | 17.82637 | -95.54090 | 11600 ft | 196 kts | 120° |
| 2026-05-04 03:57 | 17.82023 | -95.52794 | 11600 ft | 196 kts | 120° |
| 2026-05-04 03:57 | 17.81416 | -95.51515 | 11600 ft | 196 kts | 120° |
| 2026-05-04 03:57 | 17.80812 | -95.50241 | 11600 ft | 196 kts | 120° |
| 2026-05-04 03:58 | 17.79589 | -95.47664 | 11600 ft | 196 kts | 120° |
| 2026-05-04 03:58 | 17.78979 | -95.46377 | 11600 ft | 196 kts | 120° |
| 2026-05-04 03:58 | 17.78374 | -95.45104 | 11600 ft | 196 kts | 120° |
| 2026-05-04 03:59 | 17.77764 | -95.43818 | 11600 ft | 196 kts | 120° |
| 2026-05-04 03:59 | 17.77155 | -95.42535 | 11600 ft | 197 kts | 120° |
| 2026-05-04 03:59 | 17.76538 | -95.41238 | 11600 ft | 197 kts | 120° |
| 2026-05-04 03:59 | 17.75929 | -95.39957 | 11600 ft | 197 kts | 120° |
| 2026-05-04 04:00 | 17.75325 | -95.38683 | 11605 ft | 196 kts | 121° |
| 2026-05-04 04:00 | 17.74728 | -95.37421 | 11602 ft | 193 kts | 121° |
| 2026-05-04 04:00 | 17.74129 | -95.36161 | 11599 ft | 191 kts | 122° |
| 2026-05-04 04:00 | 17.73535 | -95.34913 | 11599 ft | 190 kts | 122° |
| 2026-05-04 04:01 | 17.72943 | -95.33669 | 11599 ft | 189 kts | 122° |
| 2026-05-04 04:01 | 17.72354 | -95.32433 | 11599 ft | 189 kts | 122° |
| 2026-05-04 04:01 | 17.71774 | -95.31213 | 11599 ft | 188 kts | 122° |
| 2026-05-04 04:01 | 17.71186 | -95.29980 | 11600 ft | 188 kts | 122° |
| 2026-05-04 04:02 | 17.70605 | -95.28760 | 11600 ft | 188 kts | 122° |
| 2026-05-04 04:02 | 17.70023 | -95.27538 | 11600 ft | 188 kts | 122° |
| 2026-05-04 04:02 | 17.69440 | -95.26313 | 11600 ft | 188 kts | 122° |
| 2026-05-04 04:02 | 17.68855 | -95.25086 | 11600 ft | 188 kts | 122° |
| 2026-05-04 04:03 | 17.68270 | -95.23858 | 11600 ft | 188 kts | 122° |
| 2026-05-04 04:03 | 17.67687 | -95.22633 | 11600 ft | 188 kts | 122° |
| 2026-05-04 04:03 | 17.67100 | -95.21402 | 11600 ft | 188 kts | 122° |
| 2026-05-04 04:03 | 17.66519 | -95.20184 | 11600 ft | 188 kts | 122° |
| 2026-05-04 04:04 | 17.65929 | -95.18944 | 11600 ft | 188 kts | 122° |
| 2026-05-04 04:04 | 17.65346 | -95.17723 | 11600 ft | 188 kts | 122° |
| 2026-05-04 04:04 | 17.64759 | -95.16491 | 11600 ft | 188 kts | 122° |
| 2026-05-04 04:04 | 17.64177 | -95.15272 | 11599 ft | 189 kts | 121° |
| 2026-05-04 04:05 | 17.63584 | -95.14030 | 11600 ft | 189 kts | 121° |
| 2026-05-04 04:05 | 17.63001 | -95.12807 | 11600 ft | 189 kts | 121° |
| 2026-05-04 04:05 | 17.62406 | -95.11560 | 11600 ft | 190 kts | 121° |
| 2026-05-04 04:05 | 17.61813 | -95.10318 | 11600 ft | 190 kts | 121° |
| 2026-05-04 04:06 | 17.61225 | -95.09087 | 11600 ft | 190 kts | 121° |
| 2026-05-04 04:06 | 17.60631 | -95.07842 | 11600 ft | 190 kts | 121° |
| 2026-05-04 04:06 | 17.60036 | -95.06598 | 11600 ft | 190 kts | 121° |
| 2026-05-04 04:06 | 17.59445 | -95.05360 | 11600 ft | 191 kts | 121° |
| 2026-05-04 04:07 | 17.58854 | -95.04122 | 11600 ft | 191 kts | 121° |
| 2026-05-04 04:07 | 17.58260 | -95.02880 | 11599 ft | 191 kts | 121° |
| 2026-05-04 04:07 | 17.57659 | -95.01623 | 11601 ft | 191 kts | 121° |
| 2026-05-04 04:07 | 17.57066 | -95.00381 | 11600 ft | 191 kts | 121° |
| 2026-05-04 04:08 | 17.56474 | -94.99143 | 11600 ft | 191 kts | 121° |
| 2026-05-04 04:08 | 17.55874 | -94.97888 | 11600 ft | 191 kts | 121° |
| 2026-05-04 04:08 | 17.55287 | -94.96661 | 11600 ft | 191 kts | 121° |
| 2026-05-04 04:08 | 17.54691 | -94.95416 | 11600 ft | 191 kts | 121° |
| 2026-05-04 04:09 | 17.54092 | -94.94165 | 11600 ft | 191 kts | 121° |
| 2026-05-04 04:09 | 17.53498 | -94.92924 | 11600 ft | 191 kts | 121° |
| 2026-05-04 04:09 | 17.52906 | -94.91688 | 11599 ft | 191 kts | 121° |
| 2026-05-04 04:09 | 17.52313 | -94.90449 | 11600 ft | 191 kts | 121° |
| 2026-05-04 04:10 | 17.51716 | -94.89203 | 11600 ft | 191 kts | 121° |
| 2026-05-04 04:10 | 17.51117 | -94.87952 | 11600 ft | 192 kts | 121° |
| 2026-05-04 04:10 | 17.50517 | -94.86700 | 11600 ft | 192 kts | 121° |
| 2026-05-04 04:10 | 17.49923 | -94.85460 | 11600 ft | 192 kts | 121° |
| 2026-05-04 04:11 | 17.49317 | -94.84196 | 11600 ft | 192 kts | 121° |
| 2026-05-04 04:11 | 17.48723 | -94.82956 | 11600 ft | 192 kts | 121° |
| 2026-05-04 04:11 | 17.48119 | -94.81698 | 11600 ft | 192 kts | 121° |
| 2026-05-04 04:11 | 17.47526 | -94.80460 | 11600 ft | 192 kts | 121° |
| 2026-05-04 04:12 | 17.46926 | -94.79211 | 11600 ft | 192 kts | 121° |
| 2026-05-04 04:12 | 17.46322 | -94.77951 | 11600 ft | 192 kts | 121° |
| 2026-05-04 04:12 | 17.45726 | -94.76708 | 11600 ft | 192 kts | 121° |
| 2026-05-04 04:12 | 17.45120 | -94.75446 | 11600 ft | 192 kts | 121° |
| 2026-05-04 04:13 | 17.44519 | -94.74194 | 11600 ft | 192 kts | 121° |
| 2026-05-04 04:13 | 17.43924 | -94.72955 | 11600 ft | 192 kts | 121° |
| 2026-05-04 04:13 | 17.43320 | -94.71697 | 11600 ft | 192 kts | 121° |
| 2026-05-04 04:13 | 17.42722 | -94.70452 | 11600 ft | 192 kts | 121° |
| 2026-05-04 04:14 | 17.42124 | -94.69208 | 11600 ft | 192 kts | 121° |
| 2026-05-04 04:14 | 17.41519 | -94.67950 | 11600 ft | 192 kts | 121° |
| 2026-05-04 04:14 | 17.40921 | -94.66705 | 11600 ft | 192 kts | 121° |
| 2026-05-04 04:14 | 17.40319 | -94.65452 | 11600 ft | 192 kts | 121° |
| 2026-05-04 04:15 | 17.39715 | -94.64196 | 11601 ft | 192 kts | 121° |
| 2026-05-04 04:15 | 17.39117 | -94.62952 | 11600 ft | 192 kts | 121° |
| 2026-05-04 04:15 | 17.38515 | -94.61701 | 11600 ft | 192 kts | 121° |
| 2026-05-04 04:15 | 17.37918 | -94.60461 | 11600 ft | 192 kts | 121° |
| 2026-05-04 04:16 | 17.37321 | -94.59220 | 11600 ft | 191 kts | 121° |
| 2026-05-04 04:16 | 17.36722 | -94.57975 | 11600 ft | 191 kts | 121° |
| 2026-05-04 04:16 | 17.36121 | -94.56726 | 11600 ft | 191 kts | 121° |
| 2026-05-04 04:16 | 17.35520 | -94.55480 | 11600 ft | 192 kts | 121° |
| 2026-05-04 04:17 | 17.34924 | -94.54241 | 11600 ft | 192 kts | 121° |
| 2026-05-04 04:17 | 17.34320 | -94.52986 | 11600 ft | 192 kts | 121° |
| 2026-05-04 04:17 | 17.33724 | -94.51750 | 11600 ft | 192 kts | 121° |
| 2026-05-04 04:17 | 17.33119 | -94.50495 | 11600 ft | 192 kts | 121° |
| 2026-05-04 04:18 | 17.32520 | -94.49253 | 11600 ft | 192 kts | 121° |
| 2026-05-04 04:18 | 17.31915 | -94.47996 | 11600 ft | 192 kts | 121° |
| 2026-05-04 04:18 | 17.31315 | -94.46753 | 11600 ft | 192 kts | 121° |
| 2026-05-04 04:18 | 17.30713 | -94.45504 | 11600 ft | 192 kts | 121° |
| 2026-05-04 04:19 | 17.30119 | -94.44273 | 11600 ft | 192 kts | 121° |
| 2026-05-04 04:19 | 17.29519 | -94.43027 | 11600 ft | 192 kts | 121° |
| 2026-05-04 04:19 | 17.28913 | -94.41773 | 11600 ft | 192 kts | 121° |
| 2026-05-04 04:19 | 17.28310 | -94.40522 | 11600 ft | 192 kts | 121° |
| 2026-05-04 04:20 | 17.27707 | -94.39274 | 11600 ft | 192 kts | 121° |
| 2026-05-04 04:20 | 17.27107 | -94.38031 | 11600 ft | 192 kts | 121° |
| 2026-05-04 04:20 | 17.26503 | -94.36781 | 11600 ft | 192 kts | 121° |
| 2026-05-04 04:20 | 17.25905 | -94.35543 | 11600 ft | 192 kts | 121° |
| 2026-05-04 04:21 | 17.25303 | -94.34295 | 11600 ft | 192 kts | 121° |
| 2026-05-04 04:21 | 17.24700 | -94.33047 | 11600 ft | 192 kts | 121° |
| 2026-05-04 04:21 | 17.24099 | -94.31804 | 11600 ft | 192 kts | 121° |
| 2026-05-04 04:21 | 17.23492 | -94.30549 | 11600 ft | 192 kts | 121° |
| 2026-05-04 04:22 | 17.22888 | -94.29300 | 11600 ft | 192 kts | 121° |
| 2026-05-04 04:22 | 17.22291 | -94.28064 | 11601 ft | 192 kts | 121° |
| 2026-05-04 04:22 | 17.21683 | -94.26806 | 11600 ft | 192 kts | 121° |
| 2026-05-04 04:22 | 17.21080 | -94.25559 | 11600 ft | 192 kts | 121° |
| 2026-05-04 04:23 | 17.20484 | -94.24328 | 11600 ft | 192 kts | 121° |
| 2026-05-04 04:23 | 17.19880 | -94.23079 | 11600 ft | 192 kts | 121° |
| 2026-05-04 04:23 | 17.19282 | -94.21843 | 11600 ft | 191 kts | 121° |
| 2026-05-04 04:23 | 17.18674 | -94.20589 | 11600 ft | 192 kts | 121° |
| 2026-05-04 04:24 | 17.18070 | -94.19342 | 11600 ft | 192 kts | 121° |
| 2026-05-04 04:24 | 17.17471 | -94.18104 | 11600 ft | 192 kts | 121° |
| 2026-05-04 04:24 | 17.16868 | -94.16860 | 11600 ft | 192 kts | 121° |
| 2026-05-04 04:24 | 17.16265 | -94.15614 | 11600 ft | 192 kts | 121° |
| 2026-05-04 04:25 | 17.15664 | -94.14374 | 11600 ft | 192 kts | 121° |
| 2026-05-04 04:25 | 17.15060 | -94.13128 | 11600 ft | 192 kts | 121° |
| 2026-05-04 04:25 | 17.14659 | -94.12300 | 11600 ft | 192 kts | 121° |
| 2026-05-04 04:25 | 17.14052 | -94.11049 | 11600 ft | 192 kts | 121° |
| 2026-05-04 04:26 | 17.13449 | -94.09805 | 11600 ft | 192 kts | 121° |
| 2026-05-04 04:26 | 17.12847 | -94.08564 | 11600 ft | 192 kts | 121° |
| 2026-05-04 04:26 | 17.12249 | -94.07332 | 11600 ft | 192 kts | 121° |
| 2026-05-04 04:26 | 17.11644 | -94.06083 | 11600 ft | 192 kts | 121° |
| 2026-05-04 04:27 | 17.11038 | -94.04835 | 11600 ft | 192 kts | 121° |
| 2026-05-04 04:27 | 17.10439 | -94.03601 | 11600 ft | 192 kts | 121° |
| 2026-05-04 04:27 | 17.09833 | -94.02353 | 11600 ft | 192 kts | 121° |
| 2026-05-04 04:27 | 17.09230 | -94.01111 | 11600 ft | 192 kts | 121° |
| 2026-05-04 04:28 | 17.08633 | -93.99881 | 11600 ft | 192 kts | 121° |
| 2026-05-04 04:28 | 17.08023 | -93.98627 | 11600 ft | 192 kts | 121° |
| 2026-05-04 04:28 | 17.07422 | -93.97392 | 11598 ft | 193 kts | 121° |
| 2026-05-04 04:28 | 17.06813 | -93.96139 | 11600 ft | 193 kts | 120° |
| 2026-05-04 04:29 | 17.06204 | -93.94884 | 11600 ft | 194 kts | 120° |
| 2026-05-04 04:29 | 17.05585 | -93.93612 | 11546 ft | 198 kts | 120° |
| 2026-05-04 04:29 | 17.04952 | -93.92314 | 11388 ft | 206 kts | 120° |
| 2026-05-04 04:29 | 17.04285 | -93.90947 | 11170 ft | 214 kts | 120° |
| 2026-05-04 04:30 | 17.03600 | -93.89542 | 10950 ft | 219 kts | 120° |
| 2026-05-04 04:30 | 17.02905 | -93.88116 | 10728 ft | 222 kts | 120° |
| 2026-05-04 04:30 | 17.02206 | -93.86676 | 10506 ft | 224 kts | 120° |
| 2026-05-04 04:30 | 17.01498 | -93.85221 | 10281 ft | 224 kts | 120° |
| 2026-05-04 04:31 | 17.00789 | -93.83764 | 10057 ft | 225 kts | 120° |
| 2026-05-04 04:31 | 17.00072 | -93.82291 | 9830 ft | 226 kts | 120° |
| 2026-05-04 04:31 | 16.99363 | -93.80836 | 9607 ft | 226 kts | 120° |
| 2026-05-04 04:31 | 16.98652 | -93.79375 | 9383 ft | 226 kts | 120° |
| 2026-05-04 04:32 | 16.97934 | -93.77902 | 9157 ft | 227 kts | 120° |
| 2026-05-04 04:32 | 16.97217 | -93.76430 | 8932 ft | 224 kts | 120° |
| 2026-05-04 04:32 | 16.96534 | -93.75025 | 8700 ft | 215 kts | 120° |
| 2026-05-04 04:32 | 16.95858 | -93.73635 | 8475 ft | 214 kts | 120° |
| 2026-05-04 04:33 | 16.95188 | -93.72261 | 8267 ft | 213 kts | 120° |
| 2026-05-04 04:33 | 16.94511 | -93.70875 | 8065 ft | 212 kts | 120° |
| 2026-05-04 04:33 | 16.93845 | -93.69511 | 7865 ft | 211 kts | 120° |
| 2026-05-04 04:33 | 16.93180 | -93.68149 | 7666 ft | 211 kts | 120° |
| 2026-05-04 04:34 | 16.92511 | -93.66779 | 7466 ft | 211 kts | 120° |
| 2026-05-04 04:34 | 16.91842 | -93.65408 | 7266 ft | 211 kts | 120° |
| 2026-05-04 04:34 | 16.91170 | -93.64032 | 7065 ft | 212 kts | 120° |
| 2026-05-04 04:34 | 16.90503 | -93.62667 | 6866 ft | 212 kts | 120° |
| 2026-05-04 04:35 | 16.89831 | -93.61291 | 6666 ft | 212 kts | 120° |
| 2026-05-04 04:35 | 16.89162 | -93.59923 | 6467 ft | 212 kts | 119° |
| 2026-05-04 04:35 | 16.88489 | -93.58547 | 6267 ft | 213 kts | 118° |
| 2026-05-04 04:35 | 16.87824 | -93.57189 | 6108 ft | 211 kts | 118° |
| 2026-05-04 04:36 | 16.87163 | -93.55841 | 6041 ft | 195 kts | 117° |
| 2026-05-04 04:36 | 16.86598 | -93.54687 | 5986 ft | 167 kts | 116° |
| 2026-05-04 04:36 | 16.86100 | -93.53667 | 5973 ft | 155 kts | 116° |
| 2026-05-04 04:36 | 16.85598 | -93.52632 | 6027 ft | 167 kts | 116° |
| 2026-05-04 04:37 | 16.83909 | -93.49301 | 6001 ft | 174 kts | 123° |
| 2026-05-04 04:37 | 16.83210 | -93.48301 | 6009 ft | 171 kts | 128° |
| 2026-05-04 04:38 | 16.82440 | -93.47328 | 5973 ft | 174 kts | 131° |
| 2026-05-04 04:38 | 16.81680 | -93.46442 | 5897 ft | 155 kts | 132° |
| 2026-05-04 04:38 | 16.80996 | -93.45656 | 5716 ft | 138 kts | 133° |
| 2026-05-04 04:38 | 16.80378 | -93.44926 | 5506 ft | 135 kts | 130° |
| 2026-05-04 04:39 | 16.79814 | -93.44190 | 5319 ft | 126 kts | 125° |
| 2026-05-04 04:39 | 16.79327 | -93.43439 | 5039 ft | 121 kts | 125° |
| 2026-05-04 04:39 | 16.78828 | -93.42646 | 4910 ft | 140 kts | 119° |
| 2026-05-04 04:39 | 16.78393 | -93.41762 | 4725 ft | 135 kts | 115° |
| 2026-05-04 04:40 | 16.78022 | -93.40866 | 4520 ft | 141 kts | 112° |
| 2026-05-04 04:40 | 16.77685 | -93.39893 | 4300 ft | 131 kts | 107° |
| 2026-05-04 04:40 | 16.77526 | -93.39062 | 4089 ft | 106 kts | 96° |
| 2026-05-04 04:40 | 16.77473 | -93.38283 | 3915 ft | 111 kts | 93° |
| 2026-05-04 04:41 | 16.77395 | -93.37517 | 3754 ft | 98 kts | 98° |
| 2026-05-04 04:41 | 16.77304 | -93.36836 | 3554 ft | 94 kts | 97° |
| 2026-05-04 04:41 | 16.77226 | -93.36194 | 3455 ft | 81 kts | 97° |
| 2026-05-04 04:41 | 16.77161 | -93.35709 | 3455 ft | 54 kts | 98° |
| 2026-05-04 04:42 | 16.77131 | -93.35545 | 3454 ft | 11 kts | 130° |
| 2026-05-04 04:42 | 16.77108 | -93.35520 | 3454 ft | 0 kts | 135° |